createdAt,value
2018-06-22T00:01:39.333Z,2.60
2018-06-22T00:04:14.339Z,2.80
2018-06-22T00:06:51.311Z,3.50
2018-06-22T00:09:26.350Z,1.83
2018-06-22T00:12:17.760Z,3.27
2018-06-22T00:14:52.749Z,2.27
2018-06-22T00:17:27.141Z,2.47
2018-06-22T00:20:02.445Z,2.10
2018-06-22T00:22:37.053Z,2.00
2018-06-22T00:25:11.517Z,2.10
2018-06-22T00:27:46.222Z,2.10
2018-06-22T00:30:20.929Z,1.60
2018-06-22T00:32:55.536Z,2.17
2018-06-22T00:35:30.200Z,2.40
2018-06-22T00:38:04.753Z,2.40
2018-06-22T00:40:39.195Z,2.30
2018-06-22T00:43:13.749Z,2.40
2018-06-22T00:45:48.182Z,2.07
2018-06-22T00:48:22.804Z,2.17
2018-06-22T00:50:57.256Z,2.40
2018-06-22T00:53:43.349Z,4.03
2018-06-22T00:56:17.786Z,2.60
2018-06-22T00:58:52.385Z,2.10
2018-06-22T01:01:26.990Z,2.60
2018-06-22T01:04:01.496Z,1.93
2018-06-22T01:06:36.059Z,1.93
2018-06-22T01:09:12.076Z,2.27
2018-06-22T01:11:46.765Z,2.10
2018-06-22T01:14:21.422Z,2.40
2018-06-22T01:16:56.001Z,1.67
2018-06-22T01:19:30.572Z,2.20
2018-06-22T01:22:05.191Z,1.70
2018-06-22T01:24:39.752Z,2.27
2018-06-22T01:27:14.058Z,2.33
2018-06-22T01:29:48.744Z,2.43
2018-06-22T01:32:23.488Z,2.77
2018-06-22T01:34:58.032Z,2.30
2018-06-22T01:37:32.609Z,2.87
2018-06-22T01:40:07.128Z,2.37
2018-06-22T01:42:41.945Z,2.10
2018-06-22T01:45:16.589Z,2.57
2018-06-22T01:47:51.124Z,3.00
2018-06-22T01:50:25.757Z,2.00
2018-06-22T01:53:00.313Z,2.63
2018-06-22T01:55:34.728Z,2.77
2018-06-22T01:58:09.462Z,2.27
2018-06-22T02:00:43.945Z,2.30
2018-06-22T02:03:18.377Z,2.30
2018-06-22T02:05:52.924Z,2.10
2018-06-22T02:08:27.574Z,3.20
2018-06-22T02:11:02.517Z,1.93
2018-06-22T02:13:37.348Z,2.57
2018-06-22T02:16:11.764Z,2.30
2018-06-22T02:18:46.042Z,2.37
2018-06-22T02:21:20.658Z,2.10
2018-06-22T02:23:55.121Z,2.20
2018-06-22T02:26:29.783Z,2.27
2018-06-22T02:29:04.170Z,2.37
2018-06-22T02:31:38.747Z,2.40
2018-06-22T02:34:12.983Z,2.63
2018-06-22T02:36:47.232Z,2.43
2018-06-22T02:39:21.639Z,2.10
2018-06-22T02:41:56.632Z,2.30
2018-06-22T02:44:31.029Z,2.80
2018-06-22T02:47:05.629Z,2.70
2018-06-22T02:49:40.081Z,2.33
2018-06-22T02:52:14.464Z,2.20
2018-06-22T02:54:48.875Z,2.33
2018-06-22T02:57:23.199Z,2.90
2018-06-22T02:59:57.627Z,2.30
2018-06-22T03:02:31.952Z,2.03
2018-06-22T03:05:06.452Z,2.27
2018-06-22T03:07:40.860Z,2.53
2018-06-22T03:10:15.156Z,2.50
2018-06-22T03:12:49.472Z,2.50
2018-06-22T03:18:41.607Z,2.40
2018-06-22T03:21:15.935Z,2.20
2018-06-22T03:23:50.280Z,2.30
2018-06-22T03:26:24.732Z,3.40
2018-06-22T03:28:59.058Z,2.57
2018-06-22T03:31:33.346Z,2.70
2018-06-22T03:34:07.703Z,2.30
2018-06-22T03:36:42.119Z,2.70
2018-06-22T03:39:16.530Z,2.53
2018-06-22T03:41:51.200Z,2.47
2018-06-22T03:44:25.651Z,2.80
2018-06-22T03:47:00.462Z,2.47
2018-06-22T03:49:34.887Z,2.63
2018-06-22T03:52:09.151Z,2.60
2018-06-22T03:54:43.463Z,2.50
2018-06-22T03:57:17.887Z,2.70
2018-06-22T03:59:52.316Z,2.03
2018-06-22T04:02:26.763Z,2.43
2018-06-22T04:05:01.301Z,2.63
2018-06-22T04:07:35.612Z,2.10
2018-06-22T04:10:09.943Z,2.50
2018-06-22T04:12:44.321Z,2.20
2018-06-22T04:15:18.821Z,2.23
2018-06-22T04:17:54.479Z,2.47
2018-06-22T04:20:28.732Z,2.87
2018-06-22T04:23:03.100Z,1.97
2018-06-22T04:25:37.339Z,3.57
2018-06-22T04:28:11.663Z,2.10
2018-06-22T04:30:46.368Z,2.53
2018-06-22T04:33:20.876Z,2.00
2018-06-22T04:35:55.444Z,2.30
2018-06-22T04:38:30.068Z,2.27
2018-06-22T04:41:04.893Z,2.00
2018-06-22T04:43:39.404Z,2.07
2018-06-22T04:46:14.121Z,2.47
2018-06-22T04:48:48.784Z,2.20
2018-06-22T04:51:23.284Z,2.03
2018-06-22T04:53:57.636Z,2.13
2018-06-22T04:56:32.383Z,2.13
2018-06-22T04:59:06.978Z,2.50
2018-06-22T05:01:41.641Z,2.03
2018-06-22T05:04:16.139Z,1.77
2018-06-22T05:06:50.661Z,2.13
2018-06-22T05:09:25.123Z,2.10
2018-06-22T05:11:59.716Z,4.03
2018-06-22T05:14:34.174Z,2.60
2018-06-22T05:17:08.669Z,2.00
2018-06-22T05:19:43.172Z,2.53
2018-06-22T05:22:17.820Z,2.40
2018-06-22T05:24:52.234Z,2.97
2018-06-22T05:27:26.616Z,3.13
2018-06-22T05:30:01.018Z,1.90
2018-06-22T05:32:36.013Z,1.73
2018-06-22T05:35:10.461Z,2.23
2018-06-22T05:37:45.026Z,2.20
2018-06-22T05:40:19.524Z,2.50
2018-06-22T05:42:53.984Z,2.60
2018-06-22T05:45:28.400Z,2.47
2018-06-22T05:48:02.816Z,2.43
2018-06-22T05:50:37.259Z,2.27
2018-06-22T05:53:11.880Z,2.60
2018-06-22T05:55:46.512Z,2.63
2018-06-22T05:58:21.026Z,2.50
2018-06-22T06:00:55.432Z,2.73
2018-06-22T06:03:29.895Z,2.20
2018-06-22T06:06:04.224Z,2.53
2018-06-22T06:08:38.645Z,3.17
2018-06-22T06:11:13.031Z,2.00
2018-06-22T06:13:47.570Z,2.80
2018-06-22T06:16:22.610Z,2.20
2018-06-22T06:18:57.016Z,3.40
2018-06-22T06:21:31.529Z,2.17
2018-06-22T06:24:06.376Z,2.17
2018-06-22T06:26:40.922Z,2.67
2018-06-22T06:29:15.461Z,2.27
2018-06-22T06:31:49.896Z,2.23
2018-06-22T06:34:24.644Z,2.37
2018-06-22T06:36:59.081Z,2.23
2018-06-22T06:39:33.645Z,2.73
2018-06-22T06:42:11.372Z,3.00
2018-06-22T06:44:46.518Z,2.63
2018-06-22T06:47:21.163Z,2.13
2018-06-22T06:49:55.528Z,2.90
2018-06-22T06:52:30.188Z,2.13
2018-06-22T06:55:05.015Z,3.10
2018-06-22T06:57:39.589Z,3.10
2018-06-22T07:00:14.009Z,2.60
2018-06-22T07:02:48.441Z,2.67
2018-06-22T07:05:22.798Z,2.60
2018-06-22T07:07:57.732Z,2.73
2018-06-22T07:10:32.400Z,2.93
2018-06-22T07:13:06.857Z,2.27
2018-06-22T07:15:41.958Z,2.63
2018-06-22T07:18:16.608Z,2.63
2018-06-22T07:20:51.077Z,2.73
2018-06-22T07:23:25.617Z,2.80
2018-06-22T07:26:00.001Z,2.70
2018-06-22T07:28:34.375Z,2.50
2018-06-22T07:31:09.128Z,4.17
2018-06-22T07:33:43.752Z,2.87
2018-06-22T07:36:18.455Z,3.17
2018-06-22T07:38:52.957Z,3.43
2018-06-22T07:41:27.473Z,2.90
2018-06-22T07:44:02.056Z,2.50
2018-06-22T07:46:36.444Z,2.67
2018-06-22T07:49:10.940Z,3.60
2018-06-22T07:51:45.474Z,3.20
2018-06-22T07:54:20.245Z,2.53
2018-06-22T07:56:54.837Z,2.93
2018-06-22T07:59:29.389Z,3.47
2018-06-22T08:02:03.863Z,2.93
2018-06-22T08:04:38.225Z,3.47
2018-06-22T08:10:11.580Z,3.93
2018-06-22T08:12:46.044Z,3.87
2018-06-22T08:15:20.608Z,5.27
2018-06-22T08:17:55.001Z,4.67
2018-06-22T08:20:29.744Z,3.93
2018-06-22T08:23:04.343Z,3.53
2018-06-22T08:25:38.861Z,4.40
2018-06-22T08:28:13.420Z,3.90
2018-06-22T08:30:47.866Z,3.87
2018-06-22T08:33:22.361Z,4.43
2018-06-22T08:35:56.853Z,4.03
2018-06-22T08:38:31.319Z,3.80
2018-06-22T08:41:05.756Z,3.30
2018-06-22T08:43:40.340Z,4.00
2018-06-22T08:46:14.984Z,4.43
2018-06-22T08:48:49.566Z,4.43
2018-06-22T08:51:24.200Z,3.50
2018-06-22T08:53:58.664Z,3.57
2018-06-22T08:56:33.152Z,3.93
2018-06-22T08:59:07.615Z,4.80
2018-06-22T09:01:42.090Z,3.47
2018-06-22T09:04:16.704Z,3.80
2018-06-22T09:06:51.248Z,3.80
2018-06-22T09:09:26.420Z,3.63
2018-06-22T09:12:01.447Z,3.10
2018-06-22T09:14:37.111Z,3.97
2018-06-22T09:17:11.615Z,3.97
2018-06-22T09:19:46.300Z,3.43
2018-06-22T09:22:20.730Z,3.60
2018-06-22T09:24:55.389Z,4.27
2018-06-22T09:27:29.940Z,3.40
2018-06-22T09:30:04.877Z,3.77
2018-06-22T09:32:40.395Z,3.90
2018-06-22T09:35:14.901Z,3.67
2018-06-22T09:37:49.404Z,4.00
2018-06-22T09:40:23.871Z,5.37
2018-06-22T09:42:58.401Z,4.07
2018-06-22T09:45:32.908Z,3.40
2018-06-22T09:48:07.495Z,3.43
2018-06-22T09:50:41.924Z,4.03
2018-06-22T09:53:16.338Z,3.90
2018-06-22T09:55:51.533Z,3.37
2018-06-22T09:58:25.998Z,3.40
2018-06-22T10:01:01.384Z,3.50
2018-06-22T10:03:35.956Z,3.30
2018-06-22T10:06:10.636Z,3.17
2018-06-22T10:08:45.825Z,3.50
2018-06-22T10:11:20.307Z,3.80
2018-06-22T10:13:54.920Z,2.80
2018-06-22T10:16:29.357Z,4.60
2018-06-22T10:19:04.020Z,4.20
2018-06-22T10:21:38.618Z,2.83
2018-06-22T10:24:13.144Z,3.13
2018-06-22T10:26:47.952Z,3.00
2018-06-22T10:29:22.433Z,3.23
2018-06-22T10:31:56.935Z,2.70
2018-06-22T10:34:31.603Z,2.97
2018-06-22T10:37:06.280Z,3.63
2018-06-22T10:39:40.749Z,3.20
2018-06-22T10:42:15.492Z,3.30
2018-06-22T10:44:50.203Z,2.93
2018-06-22T10:47:24.769Z,3.37
2018-06-22T10:49:59.279Z,3.07
2018-06-22T10:52:33.824Z,3.47
2018-06-22T10:55:08.328Z,3.30
2018-06-22T10:57:42.873Z,3.67
2018-06-22T11:00:17.538Z,3.67
2018-06-22T11:02:52.127Z,2.70
2018-06-22T11:05:26.713Z,2.93
2018-06-22T11:08:01.122Z,3.27
2018-06-22T11:10:35.641Z,3.50
2018-06-22T11:13:10.249Z,3.03
2018-06-22T11:15:44.805Z,2.90
2018-06-22T11:18:19.234Z,3.33
2018-06-22T11:20:53.801Z,3.27
2018-06-22T11:23:28.445Z,3.03
2018-06-22T11:26:02.918Z,3.30
2018-06-22T11:28:37.478Z,3.10
2018-06-22T11:31:12.718Z,2.80
2018-06-22T11:33:47.369Z,3.37
2018-06-22T11:36:22.022Z,2.73
2018-06-22T11:38:56.839Z,2.60
2018-06-22T11:41:31.469Z,1.97
2018-06-22T11:44:06.124Z,2.97
2018-06-22T11:49:40.356Z,2.70
2018-06-22T11:52:14.879Z,2.83
2018-06-22T11:54:49.558Z,3.10
2018-06-22T11:57:24.181Z,3.20
2018-06-22T11:59:58.745Z,2.97
2018-06-22T12:02:33.421Z,3.33
2018-06-22T12:05:07.984Z,3.60
2018-06-22T12:07:42.633Z,3.37
2018-06-22T12:10:17.445Z,3.40
2018-06-22T12:12:52.425Z,3.07
2018-06-22T12:15:31.195Z,3.30
2018-06-22T12:18:05.965Z,3.20
2018-06-22T12:20:40.648Z,3.00
2018-06-22T12:23:15.347Z,2.20
2018-06-22T12:25:49.899Z,2.43
2018-06-22T12:28:24.494Z,2.37
2018-06-22T12:30:59.123Z,2.77
2018-06-22T12:33:33.645Z,2.97
2018-06-22T12:36:08.332Z,2.60
2018-06-22T12:38:42.898Z,3.10
2018-06-22T12:41:17.507Z,3.60
2018-06-22T12:43:54.065Z,3.63
2018-06-22T12:46:28.517Z,2.50
2018-06-22T12:49:02.852Z,2.50
2018-06-22T12:51:37.256Z,2.93
2018-06-22T12:54:11.778Z,2.33
2018-06-22T12:56:46.489Z,2.93
2018-06-22T12:59:21.089Z,2.70
2018-06-22T13:01:55.918Z,2.70
2018-06-22T13:04:30.969Z,3.60
2018-06-22T13:07:05.802Z,2.70
2018-06-22T13:09:40.509Z,2.53
2018-06-22T13:12:14.910Z,2.40
2018-06-22T13:14:49.407Z,2.50
2018-06-22T13:17:24.117Z,2.00
2018-06-22T13:19:58.725Z,2.30
2018-06-22T13:22:33.725Z,1.97
2018-06-22T13:25:08.156Z,2.50
2018-06-22T13:27:42.569Z,2.70
2018-06-22T13:30:17.225Z,2.40
2018-06-22T13:32:51.678Z,2.40
2018-06-22T13:35:26.165Z,2.03
2018-06-22T13:38:00.602Z,2.63
2018-06-22T13:40:35.100Z,2.90
2018-06-22T13:43:09.488Z,2.57
2018-06-22T13:45:44.033Z,3.20
2018-06-22T13:48:18.748Z,3.27
2018-06-22T13:50:53.285Z,3.03
2018-06-22T13:53:27.841Z,2.87
2018-06-22T13:56:02.469Z,3.33
2018-06-22T13:58:37.921Z,2.43
2018-06-22T14:01:12.441Z,2.40
2018-06-22T14:03:52.238Z,2.63
2018-06-22T14:06:32.218Z,2.00
2018-06-22T14:09:09.296Z,2.00
2018-06-22T14:11:44.289Z,2.20
2018-06-22T14:14:18.776Z,1.80
2018-06-22T14:16:53.297Z,1.60
2018-06-22T14:19:28.013Z,2.00
2018-06-22T14:22:03.308Z,1.50
2018-06-22T14:24:37.850Z,1.30
2018-06-22T14:27:12.401Z,1.53
2018-06-22T14:29:46.966Z,2.23
2018-06-22T14:32:21.464Z,2.17
2018-06-22T14:34:56.097Z,2.33
2018-06-22T14:37:30.760Z,2.07
2018-06-22T14:40:05.311Z,2.50
2018-06-22T14:42:39.844Z,2.30
2018-06-22T14:45:14.372Z,2.13
2018-06-22T14:47:50.601Z,2.40
2018-06-22T14:50:25.091Z,2.10
2018-06-22T14:52:59.744Z,2.33
2018-06-22T14:55:39.889Z,2.30
2018-06-22T14:58:19.636Z,2.37
2018-06-22T15:00:59.495Z,2.47
2018-06-22T15:03:39.571Z,2.50
2018-06-22T15:06:19.333Z,2.33
2018-06-22T15:08:53.889Z,2.30
2018-06-22T15:11:28.485Z,2.27
2018-06-22T15:14:03.198Z,2.63
2018-06-22T15:16:38.264Z,2.20
2018-06-22T15:19:12.882Z,2.17
2018-06-22T15:21:47.530Z,2.60
2018-06-22T15:24:22.090Z,2.13
2018-06-22T15:26:56.629Z,2.20
2018-06-22T15:29:31.149Z,1.80
2018-06-22T15:32:05.683Z,2.23
2018-06-22T15:34:45.441Z,2.60
2018-06-22T15:37:25.237Z,2.20
2018-06-22T15:40:05.197Z,2.30
2018-06-22T15:42:46.042Z,1.50
2018-06-22T15:45:25.845Z,1.80
2018-06-22T15:48:05.781Z,1.57
2018-06-22T15:50:45.614Z,1.80
2018-06-22T15:53:25.386Z,1.70
2018-06-22T15:56:05.157Z,1.73
2018-06-22T15:58:39.782Z,1.60
2018-06-22T16:01:14.272Z,2.37
2018-06-22T16:03:54.098Z,1.57
2018-06-22T16:06:29.200Z,1.67
2018-06-22T16:09:04.860Z,2.00
2018-06-22T16:11:39.293Z,1.73
2018-06-22T16:14:19.140Z,1.57
2018-06-22T16:16:59.037Z,1.77
2018-06-22T16:19:38.909Z,1.63
2018-06-22T16:22:18.628Z,2.43
2018-06-22T16:24:58.396Z,2.47
2018-06-22T16:27:37.345Z,1.90
2018-06-22T16:30:12.020Z,2.00
2018-06-22T16:32:46.629Z,1.67
2018-06-22T16:35:21.683Z,2.30
2018-06-22T16:37:56.483Z,2.17
2018-06-22T16:40:30.961Z,2.20
2018-06-22T16:43:05.577Z,2.10
2018-06-22T16:45:40.197Z,2.43
2018-06-22T16:48:14.619Z,1.90
2018-06-22T16:50:48.948Z,2.37
2018-06-22T16:53:26.038Z,1.87
2018-06-22T16:56:01.893Z,1.80
2018-06-22T16:58:39.442Z,1.50
2018-06-22T17:01:14.013Z,1.97
2018-06-22T17:03:48.677Z,1.87
2018-06-22T17:06:23.417Z,1.90
2018-06-22T17:09:03.427Z,1.90
2018-06-22T17:11:43.344Z,2.10
2018-06-22T17:14:23.357Z,2.00
2018-06-22T17:17:03.343Z,2.03
2018-06-22T17:19:38.155Z,2.13
2018-06-22T17:22:12.757Z,2.17
2018-06-22T17:24:47.322Z,2.40
2018-06-22T17:27:21.910Z,1.80
2018-06-22T17:29:56.518Z,2.50
2018-06-22T17:32:31.098Z,1.93
2018-06-22T17:35:05.658Z,2.00
2018-06-22T17:37:40.277Z,2.33
2018-06-22T17:40:14.925Z,2.30
2018-06-22T17:42:49.329Z,2.70
2018-06-22T17:45:23.769Z,1.93
2018-06-22T17:47:58.330Z,2.10
2018-06-22T17:50:32.716Z,2.73
2018-06-22T17:53:07.302Z,2.10
2018-06-22T17:55:42.033Z,2.43
2018-06-22T17:58:16.605Z,2.77
2018-06-22T18:00:56.625Z,2.20
2018-06-22T18:03:36.363Z,2.37
2018-06-22T18:06:16.065Z,2.43
2018-06-22T18:08:50.608Z,2.43
2018-06-22T18:11:30.321Z,2.40
2018-06-22T18:14:04.793Z,2.10
2018-06-22T18:16:39.341Z,2.00
2018-06-22T18:19:13.928Z,2.10
2018-06-22T18:21:48.449Z,2.00
2018-06-22T18:24:28.556Z,2.07
2018-06-22T18:27:03.436Z,3.10
2018-06-22T18:29:37.926Z,2.87
2018-06-22T18:32:12.528Z,2.40
2018-06-22T18:34:47.104Z,2.10
2018-06-22T18:37:21.805Z,2.23
2018-06-22T18:40:02.265Z,2.30
2018-06-22T18:45:35.989Z,1.83
2018-06-22T18:48:10.549Z,2.03
2018-06-22T18:50:45.356Z,2.03
2018-06-22T18:53:25.261Z,2.20
2018-06-22T18:56:05.377Z,1.73
2018-06-22T18:58:45.264Z,1.63
2018-06-22T19:02:28.863Z,2.30
2018-06-22T19:05:03.722Z,2.77
2018-06-22T19:07:38.283Z,2.87
2018-06-22T19:10:12.953Z,2.43
2018-06-22T19:12:49.041Z,1.90
2018-06-22T19:15:29.169Z,1.87
2018-06-22T19:18:06.142Z,2.10
2018-06-22T19:20:41.398Z,1.60
2018-06-22T19:23:25.635Z,2.00
2018-06-22T19:26:00.170Z,2.80
2018-06-22T19:28:34.500Z,2.47
2018-06-22T19:31:08.948Z,2.27
2018-06-22T19:33:43.527Z,2.57
2018-06-22T19:36:18.161Z,2.20
2018-06-22T19:38:52.616Z,4.53
2018-06-22T19:41:27.000Z,3.27
2018-06-22T19:44:06.872Z,1.97
2018-06-22T19:46:46.793Z,2.80
2018-06-22T19:49:26.737Z,2.33
2018-06-22T19:53:06.408Z,2.30
2018-06-22T19:55:40.941Z,2.30
2018-06-22T19:58:15.386Z,2.80
2018-06-22T20:00:50.052Z,2.57
2018-06-22T20:03:24.629Z,2.23
2018-06-22T20:05:59.241Z,2.97
2018-06-22T20:08:33.573Z,2.80
2018-06-22T20:11:08.148Z,2.73
2018-06-22T20:13:43.808Z,2.60
2018-06-22T20:16:18.299Z,2.17
2018-06-22T20:18:52.589Z,2.50
2018-06-22T20:21:27.016Z,2.70
2018-06-22T20:24:01.401Z,2.60
2018-06-22T20:26:35.915Z,2.50
2018-06-22T20:29:10.372Z,3.43
2018-06-22T20:31:44.809Z,3.20
2018-06-22T20:34:24.783Z,2.83
2018-06-22T20:38:06.296Z,2.73
2018-06-22T20:40:46.101Z,2.90
2018-06-22T20:43:26.022Z,3.40
2018-06-22T20:46:00.661Z,3.33
2018-06-22T20:48:40.526Z,3.70
2018-06-22T20:51:15.210Z,3.27
2018-06-22T20:53:49.821Z,3.20
2018-06-22T20:56:24.395Z,3.03
2018-06-22T20:58:58.836Z,3.97
2018-06-22T21:01:33.370Z,4.40
2018-06-22T21:04:07.898Z,3.83
2018-06-22T21:06:42.426Z,3.57
2018-06-22T21:09:16.936Z,3.07
2018-06-22T21:11:51.518Z,3.87
2018-06-22T21:14:26.034Z,3.63
2018-06-22T21:17:00.518Z,2.93
2018-06-22T21:19:35.160Z,3.00
2018-06-22T21:22:11.565Z,2.50
2018-06-22T21:24:46.237Z,3.37
2018-06-22T21:27:26.152Z,3.00
2018-06-22T21:30:06.169Z,3.00
2018-06-22T21:32:45.990Z,3.10
2018-06-22T21:35:25.892Z,3.13
2018-06-22T21:38:05.734Z,3.50
2018-06-22T21:40:40.235Z,4.63
2018-06-22T21:43:14.860Z,3.63
2018-06-22T21:45:49.456Z,4.47
2018-06-22T21:48:24.009Z,3.17
2018-06-22T21:50:58.605Z,2.90
2018-06-22T21:53:33.049Z,3.70
2018-06-22T21:56:07.664Z,3.60
2018-06-22T21:58:41.989Z,3.53
2018-06-22T22:01:16.501Z,3.30
2018-06-22T22:03:51.034Z,3.77
2018-06-22T22:06:25.599Z,4.00
2018-06-22T22:09:00.145Z,3.80
2018-06-22T22:11:39.845Z,4.07
2018-06-22T22:14:14.516Z,4.47
2018-06-22T22:16:49.237Z,3.30
2018-06-22T22:19:23.724Z,4.57
2018-06-22T22:21:58.136Z,3.97
2018-06-22T22:24:32.568Z,5.03
2018-06-22T22:27:06.905Z,4.43
2018-06-22T22:29:41.880Z,4.40
2018-06-22T22:32:16.422Z,4.30
2018-06-22T22:34:50.873Z,4.10
2018-06-22T22:37:25.449Z,4.17
2018-06-22T22:40:00.708Z,5.03
2018-06-22T22:42:35.272Z,4.97
2018-06-22T22:45:09.692Z,4.43
2018-06-22T22:47:44.459Z,4.20
2018-06-22T22:50:19.118Z,3.77
2018-06-22T22:52:53.764Z,3.90
2018-06-22T22:55:28.193Z,3.50
2018-06-22T22:58:02.652Z,4.17
2018-06-22T23:00:37.744Z,3.37
2018-06-22T23:03:12.322Z,4.70
2018-06-22T23:05:47.491Z,4.93
2018-06-22T23:08:22.115Z,5.50
2018-06-22T23:10:56.732Z,4.03
2018-06-22T23:13:31.288Z,3.27
2018-06-22T23:16:15.876Z,3.70
2018-06-22T23:18:50.780Z,3.80
2018-06-22T23:21:26.740Z,3.83
2018-06-22T23:24:02.034Z,5.33
2018-06-22T23:26:36.777Z,3.90
2018-06-22T23:29:11.216Z,3.37
2018-06-22T23:31:47.636Z,4.60
2018-06-22T23:34:28.888Z,4.07
2018-06-22T23:37:03.417Z,3.97
2018-06-22T23:39:37.960Z,4.27
2018-06-22T23:42:17.989Z,3.80
2018-06-22T23:47:54.328Z,3.23
2018-06-22T23:50:29.317Z,4.30
2018-06-22T23:53:23.154Z,5.13
2018-06-22T23:55:59.927Z,4.50
